sensor_id;sensor_type;location;lat;lon;timestamp;P1;durP1;ratioP1;P2;durP2;ratioP2
28266;SDS011;15525;45.568;5.448;2023-04-12T00:02:03;7.30;;;4.90;;
28266;SDS011;15525;45.568;5.448;2023-04-12T00:04:30;8.23;;;4.60;;
28266;SDS011;15525;45.568;5.448;2023-04-12T00:06:58;9.25;;;4.50;;
28266;SDS011;15525;45.568;5.448;2023-04-12T00:09:25;7.97;;;4.60;;
28266;SDS011;15525;45.568;5.448;2023-04-12T00:11:55;6.70;;;4.57;;
28266;SDS011;15525;45.568;5.448;2023-04-12T00:14:23;8.05;;;4.30;;
28266;SDS011;15525;45.568;5.448;2023-04-12T00:16:49;9.85;;;4.80;;
28266;SDS011;15525;45.568;5.448;2023-04-12T00:19:15;8.23;;;5.00;;
28266;SDS011;15525;45.568;5.448;2023-04-12T00:21:41;9.82;;;4.95;;
28266;SDS011;15525;45.568;5.448;2023-04-12T00:24:07;9.18;;;5.13;;
28266;SDS011;15525;45.568;5.448;2023-04-12T00:26:33;9.13;;;5.15;;
28266;SDS011;15525;45.568;5.448;2023-04-12T00:28:58;7.82;;;4.93;;
28266;SDS011;15525;45.568;5.448;2023-04-12T00:31:24;7.85;;;4.50;;
28266;SDS011;15525;45.568;5.448;2023-04-12T00:33:49;11.02;;;4.68;;
28266;SDS011;15525;45.568;5.448;2023-04-12T00:36:15;7.18;;;4.70;;
28266;SDS011;15525;45.568;5.448;2023-04-12T00:38:41;8.75;;;4.85;;
28266;SDS011;15525;45.568;5.448;2023-04-12T00:41:07;8.18;;;4.95;;
28266;SDS011;15525;45.568;5.448;2023-04-12T00:43:32;10.13;;;4.80;;
28266;SDS011;15525;45.568;5.448;2023-04-12T00:45:58;9.73;;;4.80;;
28266;SDS011;15525;45.568;5.448;2023-04-12T00:48:25;10.25;;;4.82;;
28266;SDS011;15525;45.568;5.448;2023-04-12T00:50:54;10.70;;;5.18;;
28266;SDS011;15525;45.568;5.448;2023-04-12T00:53:20;8.18;;;5.28;;
28266;SDS011;15525;45.568;5.448;2023-04-12T00:55:46;9.25;;;4.50;;
28266;SDS011;15525;45.568;5.448;2023-04-12T00:58:14;10.45;;;4.85;;
28266;SDS011;15525;45.568;5.448;2023-04-12T01:00:40;9.10;;;5.05;;
28266;SDS011;15525;45.568;5.448;2023-04-12T01:03:06;9.43;;;5.45;;
28266;SDS011;15525;45.568;5.448;2023-04-12T01:05:42;9.25;;;4.90;;
28266;SDS011;15525;45.568;5.448;2023-04-12T01:08:18;9.93;;;5.47;;
28266;SDS011;15525;45.568;5.448;2023-04-12T01:11:25;11.70;;;5.43;;
28266;SDS011;15525;45.568;5.448;2023-04-12T01:16:40;10.15;;;5.70;;
28266;SDS011;15525;45.568;5.448;2023-04-12T01:27:44;10.45;;;5.72;;
28266;SDS011;15525;45.568;5.448;2023-04-12T01:30:13;9.88;;;5.32;;
28266;SDS011;15525;45.568;5.448;2023-04-12T01:32:42;10.90;;;5.40;;
28266;SDS011;15525;45.568;5.448;2023-04-12T01:35:10;10.98;;;5.38;;
28266;SDS011;15525;45.568;5.448;2023-04-12T01:37:37;9.02;;;5.72;;
28266;SDS011;15525;45.568;5.448;2023-04-12T01:40:05;11.40;;;6.10;;
28266;SDS011;15525;45.568;5.448;2023-04-12T01:42:33;11.27;;;6.45;;
28266;SDS011;15525;45.568;5.448;2023-04-12T01:44:59;10.77;;;5.95;;
28266;SDS011;15525;45.568;5.448;2023-04-12T01:47:26;7.38;;;5.20;;
28266;SDS011;15525;45.568;5.448;2023-04-12T01:49:54;12.38;;;5.78;;
28266;SDS011;15525;45.568;5.448;2023-04-12T01:52:38;8.88;;;5.90;;
28266;SDS011;15525;45.568;5.448;2023-04-12T01:55:13;11.32;;;5.30;;
28266;SDS011;15525;45.568;5.448;2023-04-12T01:57:42;8.55;;;5.55;;
28266;SDS011;15525;45.568;5.448;2023-04-12T02:00:09;12.35;;;5.60;;
28266;SDS011;15525;45.568;5.448;2023-04-12T02:02:36;10.30;;;5.43;;
28266;SDS011;15525;45.568;5.448;2023-04-12T02:05:03;9.05;;;5.00;;
28266;SDS011;15525;45.568;5.448;2023-04-12T02:07:33;11.75;;;5.70;;
28266;SDS011;15525;45.568;5.448;2023-04-12T02:09:59;10.77;;;5.60;;
28266;SDS011;15525;45.568;5.448;2023-04-12T02:12:25;11.15;;;4.90;;
28266;SDS011;15525;45.568;5.448;2023-04-12T02:14:50;10.50;;;6.00;;
28266;SDS011;15525;45.568;5.448;2023-04-12T02:17:16;10.38;;;5.53;;
28266;SDS011;15525;45.568;5.448;2023-04-12T02:19:42;8.25;;;5.30;;
28266;SDS011;15525;45.568;5.448;2023-04-12T02:22:08;10.40;;;5.55;;
28266;SDS011;15525;45.568;5.448;2023-04-12T02:24:33;10.00;;;5.45;;
28266;SDS011;15525;45.568;5.448;2023-04-12T02:26:59;10.98;;;5.38;;
28266;SDS011;15525;45.568;5.448;2023-04-12T02:29:25;8.68;;;5.05;;
28266;SDS011;15525;45.568;5.448;2023-04-12T02:31:51;11.35;;;5.65;;
28266;SDS011;15525;45.568;5.448;2023-04-12T02:34:16;9.48;;;5.00;;
28266;SDS011;15525;45.568;5.448;2023-04-12T02:36:45;8.60;;;5.20;;
28266;SDS011;15525;45.568;5.448;2023-04-12T02:39:11;9.18;;;5.18;;
28266;SDS011;15525;45.568;5.448;2023-04-12T02:41:37;8.18;;;4.80;;
28266;SDS011;15525;45.568;5.448;2023-04-12T02:44:03;11.40;;;5.38;;
28266;SDS011;15525;45.568;5.448;2023-04-12T02:46:28;8.88;;;5.30;;
28266;SDS011;15525;45.568;5.448;2023-04-12T02:48:54;10.02;;;5.15;;
28266;SDS011;15525;45.568;5.448;2023-04-12T02:51:19;10.95;;;5.32;;
28266;SDS011;15525;45.568;5.448;2023-04-12T02:53:45;9.57;;;4.85;;
28266;SDS011;15525;45.568;5.448;2023-04-12T02:56:10;10.95;;;5.43;;
28266;SDS011;15525;45.568;5.448;2023-04-12T02:58:37;11.85;;;5.05;;
28266;SDS011;15525;45.568;5.448;2023-04-12T03:01:02;9.20;;;4.93;;
28266;SDS011;15525;45.568;5.448;2023-04-12T03:03:32;10.35;;;6.05;;
28266;SDS011;15525;45.568;5.448;2023-04-12T03:06:00;10.07;;;4.80;;
28266;SDS011;15525;45.568;5.448;2023-04-12T03:08:26;10.60;;;5.00;;
28266;SDS011;15525;45.568;5.448;2023-04-12T03:10:51;11.77;;;5.30;;
28266;SDS011;15525;45.568;5.448;2023-04-12T03:13:17;9.00;;;5.28;;
28266;SDS011;15525;45.568;5.448;2023-04-12T03:15:42;11.18;;;4.85;;
28266;SDS011;15525;45.568;5.448;2023-04-12T03:18:08;8.75;;;4.70;;
28266;SDS011;15525;45.568;5.448;2023-04-12T03:20:33;8.30;;;4.72;;
28266;SDS011;15525;45.568;5.448;2023-04-12T03:22:59;8.45;;;4.30;;
28266;SDS011;15525;45.568;5.448;2023-04-12T03:25:25;6.57;;;4.57;;
28266;SDS011;15525;45.568;5.448;2023-04-12T03:27:51;6.97;;;4.57;;
28266;SDS011;15525;45.568;5.448;2023-04-12T03:30:16;7.18;;;5.03;;
28266;SDS011;15525;45.568;5.448;2023-04-12T03:32:42;8.25;;;4.93;;
28266;SDS011;15525;45.568;5.448;2023-04-12T03:35:08;9.13;;;5.00;;
28266;SDS011;15525;45.568;5.448;2023-04-12T03:37:34;10.50;;;4.93;;
28266;SDS011;15525;45.568;5.448;2023-04-12T03:40:00;10.25;;;4.82;;
28266;SDS011;15525;45.568;5.448;2023-04-12T03:42:26;8.70;;;4.90;;
28266;SDS011;15525;45.568;5.448;2023-04-12T03:44:52;7.75;;;4.35;;
28266;SDS011;15525;45.568;5.448;2023-04-12T03:47:18;9.27;;;4.60;;
28266;SDS011;15525;45.568;5.448;2023-04-12T03:49:45;8.38;;;4.78;;
28266;SDS011;15525;45.568;5.448;2023-04-12T03:52:11;9.00;;;4.80;;
28266;SDS011;15525;45.568;5.448;2023-04-12T03:54:37;7.75;;;4.45;;
28266;SDS011;15525;45.568;5.448;2023-04-12T03:57:03;8.27;;;4.45;;
28266;SDS011;15525;45.568;5.448;2023-04-12T03:59:28;7.65;;;4.25;;
28266;SDS011;15525;45.568;5.448;2023-04-12T04:01:54;8.45;;;4.47;;
28266;SDS011;15525;45.568;5.448;2023-04-12T04:04:21;9.75;;;4.65;;
28266;SDS011;15525;45.568;5.448;2023-04-12T04:06:47;10.88;;;5.32;;
28266;SDS011;15525;45.568;5.448;2023-04-12T04:09:13;8.20;;;5.05;;
28266;SDS011;15525;45.568;5.448;2023-04-12T04:11:38;8.77;;;4.90;;
28266;SDS011;15525;45.568;5.448;2023-04-12T04:14:04;10.00;;;4.85;;
28266;SDS011;15525;45.568;5.448;2023-04-12T04:16:30;9.30;;;4.25;;
28266;SDS011;15525;45.568;5.448;2023-04-12T04:18:55;7.47;;;4.30;;
28266;SDS011;15525;45.568;5.448;2023-04-12T04:21:21;9.85;;;4.78;;
28266;SDS011;15525;45.568;5.448;2023-04-12T04:23:46;7.03;;;4.18;;
28266;SDS011;15525;45.568;5.448;2023-04-12T04:26:13;8.38;;;4.47;;
28266;SDS011;15525;45.568;5.448;2023-04-12T04:28:40;9.40;;;4.75;;
28266;SDS011;15525;45.568;5.448;2023-04-12T04:31:09;10.93;;;5.18;;
28266;SDS011;15525;45.568;5.448;2023-04-12T04:33:36;11.13;;;5.40;;
28266;SDS011;15525;45.568;5.448;2023-04-12T04:36:03;9.40;;;4.47;;
28266;SDS011;15525;45.568;5.448;2023-04-12T04:38:29;11.35;;;4.40;;
28266;SDS011;15525;45.568;5.448;2023-04-12T04:41:00;9.77;;;5.00;;
28266;SDS011;15525;45.568;5.448;2023-04-12T04:43:29;9.23;;;4.20;;
28266;SDS011;15525;45.568;5.448;2023-04-12T04:45:55;7.93;;;4.25;;
28266;SDS011;15525;45.568;5.448;2023-04-12T04:48:21;7.90;;;4.10;;
28266;SDS011;15525;45.568;5.448;2023-04-12T04:50:47;8.00;;;3.97;;
28266;SDS011;15525;45.568;5.448;2023-04-12T04:53:16;10.45;;;4.22;;
28266;SDS011;15525;45.568;5.448;2023-04-12T04:55:42;7.80;;;3.83;;
28266;SDS011;15525;45.568;5.448;2023-04-12T04:58:08;8.82;;;4.30;;
28266;SDS011;15525;45.568;5.448;2023-04-12T05:00:33;8.13;;;4.32;;
28266;SDS011;15525;45.568;5.448;2023-04-12T05:03:00;7.80;;;4.07;;
28266;SDS011;15525;45.568;5.448;2023-04-12T05:05:27;6.60;;;3.78;;
28266;SDS011;15525;45.568;5.448;2023-04-12T05:07:53;8.43;;;4.25;;
28266;SDS011;15525;45.568;5.448;2023-04-12T05:10:19;7.88;;;3.88;;
28266;SDS011;15525;45.568;5.448;2023-04-12T05:12:44;6.72;;;4.13;;
28266;SDS011;15525;45.568;5.448;2023-04-12T05:15:10;7.28;;;4.03;;
28266;SDS011;15525;45.568;5.448;2023-04-12T05:17:35;7.50;;;4.50;;
28266;SDS011;15525;45.568;5.448;2023-04-12T05:20:01;9.27;;;4.50;;
28266;SDS011;15525;45.568;5.448;2023-04-12T05:22:30;9.38;;;5.00;;
28266;SDS011;15525;45.568;5.448;2023-04-12T05:24:56;6.57;;;4.65;;
28266;SDS011;15525;45.568;5.448;2023-04-12T05:27:22;8.25;;;4.50;;
28266;SDS011;15525;45.568;5.448;2023-04-12T05:29:48;8.45;;;4.72;;
28266;SDS011;15525;45.568;5.448;2023-04-12T05:32:13;8.63;;;4.88;;
28266;SDS011;15525;45.568;5.448;2023-04-12T05:34:39;10.00;;;5.30;;
28266;SDS011;15525;45.568;5.448;2023-04-12T05:37:04;8.30;;;4.50;;
28266;SDS011;15525;45.568;5.448;2023-04-12T05:39:30;8.50;;;4.60;;
28266;SDS011;15525;45.568;5.448;2023-04-12T05:41:55;8.20;;;4.75;;
28266;SDS011;15525;45.568;5.448;2023-04-12T05:44:21;8.70;;;5.00;;
28266;SDS011;15525;45.568;5.448;2023-04-12T05:46:46;10.60;;;4.70;;
28266;SDS011;15525;45.568;5.448;2023-04-12T05:49:12;9.32;;;4.97;;
28266;SDS011;15525;45.568;5.448;2023-04-12T05:51:37;13.57;;;5.20;;
28266;SDS011;15525;45.568;5.448;2023-04-12T05:54:04;12.50;;;5.00;;
28266;SDS011;15525;45.568;5.448;2023-04-12T05:56:31;17.27;;;5.45;;
28266;SDS011;15525;45.568;5.448;2023-04-12T05:58:57;22.17;;;5.15;;
28266;SDS011;15525;45.568;5.448;2023-04-12T06:01:23;11.18;;;5.35;;
28266;SDS011;15525;45.568;5.448;2023-04-12T06:03:54;14.43;;;5.47;;
28266;SDS011;15525;45.568;5.448;2023-04-12T06:06:20;23.67;;;7.05;;
28266;SDS011;15525;45.568;5.448;2023-04-12T06:08:45;20.80;;;6.53;;
28266;SDS011;15525;45.568;5.448;2023-04-12T06:11:11;16.88;;;6.30;;
28266;SDS011;15525;45.568;5.448;2023-04-12T06:13:37;15.23;;;5.50;;
28266;SDS011;15525;45.568;5.448;2023-04-12T06:16:03;12.25;;;5.38;;
28266;SDS011;15525;45.568;5.448;2023-04-12T06:18:29;9.95;;;5.00;;
28266;SDS011;15525;45.568;5.448;2023-04-12T06:20:54;12.73;;;6.35;;
28266;SDS011;15525;45.568;5.448;2023-04-12T06:23:20;12.98;;;6.97;;
28266;SDS011;15525;45.568;5.448;2023-04-12T06:25:47;19.02;;;8.45;;
28266;SDS011;15525;45.568;5.448;2023-04-12T06:28:13;24.85;;;9.20;;
28266;SDS011;15525;45.568;5.448;2023-04-12T06:30:38;25.50;;;10.02;;
28266;SDS011;15525;45.568;5.448;2023-04-12T06:33:03;19.45;;;9.60;;
28266;SDS011;15525;45.568;5.448;2023-04-12T06:35:29;19.40;;;9.52;;
28266;SDS011;15525;45.568;5.448;2023-04-12T06:37:54;21.63;;;9.82;;
28266;SDS011;15525;45.568;5.448;2023-04-12T06:40:20;17.38;;;8.73;;
28266;SDS011;15525;45.568;5.448;2023-04-12T06:42:45;14.80;;;8.55;;
28266;SDS011;15525;45.568;5.448;2023-04-12T06:45:11;16.20;;;7.28;;
28266;SDS011;15525;45.568;5.448;2023-04-12T06:47:36;17.15;;;7.63;;
28266;SDS011;15525;45.568;5.448;2023-04-12T06:50:01;17.00;;;7.93;;
28266;SDS011;15525;45.568;5.448;2023-04-12T06:52:27;14.07;;;7.45;;
28266;SDS011;15525;45.568;5.448;2023-04-12T06:54:54;13.40;;;6.43;;
28266;SDS011;15525;45.568;5.448;2023-04-12T06:57:20;11.50;;;6.40;;
28266;SDS011;15525;45.568;5.448;2023-04-12T06:59:46;11.48;;;6.32;;
28266;SDS011;15525;45.568;5.448;2023-04-12T07:02:11;16.05;;;6.57;;
28266;SDS011;15525;45.568;5.448;2023-04-12T07:04:36;15.32;;;7.78;;
28266;SDS011;15525;45.568;5.448;2023-04-12T07:07:02;17.05;;;7.10;;
28266;SDS011;15525;45.568;5.448;2023-04-12T07:09:29;20.67;;;6.45;;
28266;SDS011;15525;45.568;5.448;2023-04-12T07:11:56;18.52;;;7.32;;
28266;SDS011;15525;45.568;5.448;2023-04-12T07:14:22;15.98;;;7.00;;
28266;SDS011;15525;45.568;5.448;2023-04-12T07:16:47;13.07;;;6.38;;
28266;SDS011;15525;45.568;5.448;2023-04-12T07:19:13;16.42;;;7.40;;
28266;SDS011;15525;45.568;5.448;2023-04-12T07:21:38;16.48;;;7.30;;
28266;SDS011;15525;45.568;5.448;2023-04-12T07:24:04;22.63;;;8.63;;
28266;SDS011;15525;45.568;5.448;2023-04-12T07:26:29;15.43;;;7.60;;
28266;SDS011;15525;45.568;5.448;2023-04-12T07:28:55;13.07;;;7.47;;
28266;SDS011;15525;45.568;5.448;2023-04-12T07:31:20;12.45;;;7.05;;
28266;SDS011;15525;45.568;5.448;2023-04-12T07:33:47;15.52;;;8.30;;
28266;SDS011;15525;45.568;5.448;2023-04-12T07:36:13;17.42;;;8.30;;
28266;SDS011;15525;45.568;5.448;2023-04-12T07:38:40;18.45;;;8.30;;
28266;SDS011;15525;45.568;5.448;2023-04-12T07:41:06;23.63;;;11.57;;
28266;SDS011;15525;45.568;5.448;2023-04-12T07:43:31;20.88;;;10.35;;
28266;SDS011;15525;45.568;5.448;2023-04-12T07:45:57;14.60;;;8.48;;
28266;SDS011;15525;45.568;5.448;2023-04-12T07:48:22;16.27;;;7.70;;
28266;SDS011;15525;45.568;5.448;2023-04-12T07:50:48;15.35;;;7.72;;
28266;SDS011;15525;45.568;5.448;2023-04-12T07:53:24;14.23;;;8.00;;
28266;SDS011;15525;45.568;5.448;2023-04-12T07:55:51;18.98;;;9.23;;
28266;SDS011;15525;45.568;5.448;2023-04-12T07:58:17;18.23;;;8.55;;
28266;SDS011;15525;45.568;5.448;2023-04-12T08:00:44;26.52;;;9.15;;
28266;SDS011;15525;45.568;5.448;2023-04-12T08:03:10;22.33;;;8.50;;
28266;SDS011;15525;45.568;5.448;2023-04-12T08:05:36;19.63;;;7.93;;
28266;SDS011;15525;45.568;5.448;2023-04-12T08:08:02;14.98;;;7.80;;
28266;SDS011;15525;45.568;5.448;2023-04-12T08:10:28;11.43;;;6.50;;
28266;SDS011;15525;45.568;5.448;2023-04-12T08:12:54;17.17;;;7.93;;
28266;SDS011;15525;45.568;5.448;2023-04-12T08:15:20;9.95;;;5.75;;
28266;SDS011;15525;45.568;5.448;2023-04-12T08:17:45;18.70;;;7.47;;
28266;SDS011;15525;45.568;5.448;2023-04-12T08:20:12;19.25;;;6.93;;
28266;SDS011;15525;45.568;5.448;2023-04-12T08:22:39;17.15;;;6.45;;
28266;SDS011;15525;45.568;5.448;2023-04-12T08:25:05;17.52;;;6.60;;
28266;SDS011;15525;45.568;5.448;2023-04-12T08:27:32;19.95;;;6.55;;
28266;SDS011;15525;45.568;5.448;2023-04-12T08:29:58;9.70;;;5.43;;
28266;SDS011;15525;45.568;5.448;2023-04-12T08:32:23;9.15;;;5.30;;
28266;SDS011;15525;45.568;5.448;2023-04-12T08:34:49;9.13;;;5.22;;
28266;SDS011;15525;45.568;5.448;2023-04-12T08:37:15;9.05;;;5.20;;
28266;SDS011;15525;45.568;5.448;2023-04-12T08:39:41;9.95;;;5.10;;
28266;SDS011;15525;45.568;5.448;2023-04-12T08:42:06;9.45;;;4.60;;
28266;SDS011;15525;45.568;5.448;2023-04-12T08:44:38;7.75;;;4.13;;
28266;SDS011;15525;45.568;5.448;2023-04-12T08:47:04;7.57;;;4.47;;
28266;SDS011;15525;45.568;5.448;2023-04-12T08:49:32;8.48;;;4.38;;
28266;SDS011;15525;45.568;5.448;2023-04-12T08:52:05;7.47;;;4.20;;
28266;SDS011;15525;45.568;5.448;2023-04-12T08:54:32;9.23;;;4.15;;
28266;SDS011;15525;45.568;5.448;2023-04-12T08:56:59;7.72;;;4.30;;
28266;SDS011;15525;45.568;5.448;2023-04-12T08:59:29;10.25;;;4.40;;
28266;SDS011;15525;45.568;5.448;2023-04-12T09:01:55;11.05;;;4.68;;
28266;SDS011;15525;45.568;5.448;2023-04-12T09:04:21;7.32;;;4.80;;
28266;SDS011;15525;45.568;5.448;2023-04-12T09:06:47;8.52;;;4.72;;
28266;SDS011;15525;45.568;5.448;2023-04-12T09:09:13;9.52;;;5.10;;
28266;SDS011;15525;45.568;5.448;2023-04-12T09:11:38;9.90;;;5.30;;
28266;SDS011;15525;45.568;5.448;2023-04-12T09:14:19;8.77;;;4.30;;
28266;SDS011;15525;45.568;5.448;2023-04-12T09:16:46;9.00;;;4.53;;
28266;SDS011;15525;45.568;5.448;2023-04-12T09:19:12;6.70;;;4.32;;
28266;SDS011;15525;45.568;5.448;2023-04-12T09:21:50;7.22;;;4.25;;
28266;SDS011;15525;45.568;5.448;2023-04-12T09:24:17;7.47;;;4.50;;
28266;SDS011;15525;45.568;5.448;2023-04-12T09:26:43;8.52;;;4.40;;
28266;SDS011;15525;45.568;5.448;2023-04-12T09:29:30;8.57;;;5.28;;
28266;SDS011;15525;45.568;5.448;2023-04-12T09:32:00;7.93;;;4.40;;
28266;SDS011;15525;45.568;5.448;2023-04-12T09:34:27;8.63;;;4.68;;
28266;SDS011;15525;45.568;5.448;2023-04-12T09:36:53;8.38;;;4.78;;
28266;SDS011;15525;45.568;5.448;2023-04-12T09:39:19;7.55;;;4.90;;
28266;SDS011;15525;45.568;5.448;2023-04-12T09:44:31;7.40;;;4.78;;
28266;SDS011;15525;45.568;5.448;2023-04-12T09:46:58;8.43;;;5.13;;
28266;SDS011;15525;45.568;5.448;2023-04-12T09:49:41;7.82;;;5.00;;
28266;SDS011;15525;45.568;5.448;2023-04-12T09:52:11;9.60;;;4.72;;
28266;SDS011;15525;45.568;5.448;2023-04-12T09:54:38;7.97;;;4.03;;
28266;SDS011;15525;45.568;5.448;2023-04-12T09:57:06;8.00;;;4.00;;
28266;SDS011;15525;45.568;5.448;2023-04-12T09:59:35;7.20;;;3.92;;
28266;SDS011;15525;45.568;5.448;2023-04-12T10:04:38;7.45;;;3.33;;
28266;SDS011;15525;45.568;5.448;2023-04-12T10:07:05;7.35;;;3.35;;
28266;SDS011;15525;45.568;5.448;2023-04-12T10:09:31;6.68;;;2.80;;
28266;SDS011;15525;45.568;5.448;2023-04-12T10:11:57;5.13;;;2.70;;
28266;SDS011;15525;45.568;5.448;2023-04-12T10:14:26;4.60;;;2.75;;
28266;SDS011;15525;45.568;5.448;2023-04-12T10:16:54;6.75;;;2.83;;
28266;SDS011;15525;45.568;5.448;2023-04-12T10:19:22;7.13;;;3.08;;
28266;SDS011;15525;45.568;5.448;2023-04-12T10:21:49;4.63;;;2.85;;
28266;SDS011;15525;45.568;5.448;2023-04-12T10:24:14;7.57;;;2.75;;
28266;SDS011;15525;45.568;5.448;2023-04-12T10:26:41;10.07;;;3.40;;
28266;SDS011;15525;45.568;5.448;2023-04-12T10:31:58;6.00;;;3.30;;
28266;SDS011;15525;45.568;5.448;2023-04-12T10:34:45;6.03;;;3.28;;
28266;SDS011;15525;45.568;5.448;2023-04-12T10:37:15;7.43;;;3.50;;
28266;SDS011;15525;45.568;5.448;2023-04-12T10:39:44;7.20;;;3.00;;
28266;SDS011;15525;45.568;5.448;2023-04-12T10:42:21;5.85;;;2.90;;
28266;SDS011;15525;45.568;5.448;2023-04-12T10:50:24;3.28;;;2.55;;
28266;SDS011;15525;45.568;5.448;2023-04-12T10:55:37;8.18;;;3.35;;
28266;SDS011;15525;45.568;5.448;2023-04-12T10:58:03;5.78;;;3.25;;
28266;SDS011;15525;45.568;5.448;2023-04-12T11:03:19;8.30;;;3.13;;
28266;SDS011;15525;45.568;5.448;2023-04-12T11:08:27;4.60;;;2.75;;
28266;SDS011;15525;45.568;5.448;2023-04-12T11:11:01;7.05;;;3.08;;
28266;SDS011;15525;45.568;5.448;2023-04-12T11:13:27;8.27;;;3.30;;
28266;SDS011;15525;45.568;5.448;2023-04-12T11:15:54;5.45;;;3.03;;
28266;SDS011;15525;45.568;5.448;2023-04-12T11:18:24;7.47;;;2.88;;
28266;SDS011;15525;45.568;5.448;2023-04-12T11:20:50;7.13;;;3.30;;
28266;SDS011;15525;45.568;5.448;2023-04-12T11:23:16;5.95;;;3.25;;
28266;SDS011;15525;45.568;5.448;2023-04-12T11:25:42;4.95;;;2.95;;
28266;SDS011;15525;45.568;5.448;2023-04-12T11:28:16;5.63;;;3.05;;
28266;SDS011;15525;45.568;5.448;2023-04-12T11:30:52;4.57;;;2.97;;
28266;SDS011;15525;45.568;5.448;2023-04-12T11:33:34;7.28;;;2.78;;
28266;SDS011;15525;45.568;5.448;2023-04-12T11:36:05;5.82;;;2.85;;
28266;SDS011;15525;45.568;5.448;2023-04-12T11:38:33;7.35;;;3.40;;
28266;SDS011;15525;45.568;5.448;2023-04-12T11:41:00;6.25;;;3.00;;
28266;SDS011;15525;45.568;5.448;2023-04-12T11:43:25;8.35;;;3.35;;
28266;SDS011;15525;45.568;5.448;2023-04-12T11:45:57;7.22;;;3.40;;
28266;SDS011;15525;45.568;5.448;2023-04-12T11:48:27;5.55;;;3.15;;
28266;SDS011;15525;45.568;5.448;2023-04-12T11:50:53;10.30;;;3.50;;
28266;SDS011;15525;45.568;5.448;2023-04-12T11:53:19;6.32;;;3.60;;
28266;SDS011;15525;45.568;5.448;2023-04-12T11:55:48;6.55;;;3.22;;
28266;SDS011;15525;45.568;5.448;2023-04-12T11:58:14;5.93;;;3.60;;
28266;SDS011;15525;45.568;5.448;2023-04-12T12:00:41;7.07;;;3.10;;
28266;SDS011;15525;45.568;5.448;2023-04-12T12:03:08;6.82;;;3.05;;
28266;SDS011;15525;45.568;5.448;2023-04-12T12:05:35;5.82;;;2.95;;
28266;SDS011;15525;45.568;5.448;2023-04-12T12:08:02;5.72;;;3.00;;
28266;SDS011;15525;45.568;5.448;2023-04-12T12:10:31;7.18;;;3.10;;
28266;SDS011;15525;45.568;5.448;2023-04-12T12:13:00;5.28;;;2.88;;
28266;SDS011;15525;45.568;5.448;2023-04-12T12:15:31;6.00;;;3.00;;
28266;SDS011;15525;45.568;5.448;2023-04-12T12:17:56;5.05;;;2.80;;
28266;SDS011;15525;45.568;5.448;2023-04-12T12:20:22;5.65;;;2.95;;
28266;SDS011;15525;45.568;5.448;2023-04-12T12:22:48;6.78;;;3.28;;
28266;SDS011;15525;45.568;5.448;2023-04-12T12:25:16;5.22;;;3.10;;
28266;SDS011;15525;45.568;5.448;2023-04-12T12:27:42;4.53;;;3.10;;
28266;SDS011;15525;45.568;5.448;2023-04-12T12:30:12;5.07;;;2.90;;
28266;SDS011;15525;45.568;5.448;2023-04-12T12:32:41;7.75;;;3.20;;
28266;SDS011;15525;45.568;5.448;2023-04-12T12:35:12;4.90;;;3.05;;
28266;SDS011;15525;45.568;5.448;2023-04-12T12:37:47;4.93;;;3.25;;
28266;SDS011;15525;45.568;5.448;2023-04-12T12:40:16;6.63;;;3.15;;
28266;SDS011;15525;45.568;5.448;2023-04-12T12:45:12;7.68;;;3.42;;
28266;SDS011;15525;45.568;5.448;2023-04-12T12:47:48;5.32;;;3.30;;
28266;SDS011;15525;45.568;5.448;2023-04-12T12:50:18;5.45;;;3.10;;
28266;SDS011;15525;45.568;5.448;2023-04-12T12:52:46;6.05;;;3.00;;
28266;SDS011;15525;45.568;5.448;2023-04-12T12:55:13;6.00;;;3.47;;
28266;SDS011;15525;45.568;5.448;2023-04-12T12:57:41;4.55;;;2.95;;
28266;SDS011;15525;45.568;5.448;2023-04-12T13:00:13;7.40;;;2.88;;
28266;SDS011;15525;45.568;5.448;2023-04-12T13:02:40;9.20;;;3.08;;
28266;SDS011;15525;45.568;5.448;2023-04-12T13:05:06;11.68;;;3.20;;
28266;SDS011;15525;45.568;5.448;2023-04-12T13:07:32;6.30;;;3.38;;
28266;SDS011;15525;45.568;5.448;2023-04-12T13:09:58;7.45;;;3.20;;
28266;SDS011;15525;45.568;5.448;2023-04-12T13:12:23;6.40;;;3.42;;
28266;SDS011;15525;45.568;5.448;2023-04-12T13:14:49;6.90;;;3.47;;
28266;SDS011;15525;45.568;5.448;2023-04-12T13:17:15;7.55;;;3.92;;
28266;SDS011;15525;45.568;5.448;2023-04-12T13:19:40;7.20;;;3.80;;
28266;SDS011;15525;45.568;5.448;2023-04-12T13:22:06;6.10;;;3.20;;
28266;SDS011;15525;45.568;5.448;2023-04-12T13:24:32;7.32;;;3.28;;
28266;SDS011;15525;45.568;5.448;2023-04-12T13:26:59;7.78;;;3.80;;
28266;SDS011;15525;45.568;5.448;2023-04-12T13:29:24;9.52;;;4.65;;
28266;SDS011;15525;45.568;5.448;2023-04-12T13:31:50;7.60;;;5.50;;
28266;SDS011;15525;45.568;5.448;2023-04-12T13:34:15;11.07;;;5.65;;
28266;SDS011;15525;45.568;5.448;2023-04-12T13:36:41;11.60;;;5.70;;
28266;SDS011;15525;45.568;5.448;2023-04-12T13:39:06;10.57;;;5.15;;
28266;SDS011;15525;45.568;5.448;2023-04-12T13:41:32;9.40;;;5.53;;
28266;SDS011;15525;45.568;5.448;2023-04-12T13:43:58;11.77;;;5.78;;
28266;SDS011;15525;45.568;5.448;2023-04-12T13:46:24;13.68;;;5.60;;
28266;SDS011;15525;45.568;5.448;2023-04-12T13:48:49;11.25;;;5.43;;
28266;SDS011;15525;45.568;5.448;2023-04-12T13:51:15;13.68;;;5.10;;
28266;SDS011;15525;45.568;5.448;2023-04-12T13:53:42;10.27;;;5.05;;
28266;SDS011;15525;45.568;5.448;2023-04-12T13:56:07;7.25;;;4.53;;
28266;SDS011;15525;45.568;5.448;2023-04-12T13:58:34;9.30;;;4.20;;
28266;SDS011;15525;45.568;5.448;2023-04-12T14:01:00;11.15;;;5.05;;
28266;SDS011;15525;45.568;5.448;2023-04-12T14:03:26;11.35;;;5.90;;
28266;SDS011;15525;45.568;5.448;2023-04-12T14:05:51;11.23;;;6.22;;
28266;SDS011;15525;45.568;5.448;2023-04-12T14:08:16;9.85;;;5.95;;
28266;SDS011;15525;45.568;5.448;2023-04-12T14:10:42;9.60;;;6.53;;
28266;SDS011;15525;45.568;5.448;2023-04-12T14:13:07;12.57;;;6.32;;
28266;SDS011;15525;45.568;5.448;2023-04-12T14:15:33;13.18;;;7.00;;
28266;SDS011;15525;45.568;5.448;2023-04-12T14:17:58;12.43;;;7.13;;
28266;SDS011;15525;45.568;5.448;2023-04-12T14:20:24;11.68;;;7.63;;
28266;SDS011;15525;45.568;5.448;2023-04-12T14:22:49;11.07;;;6.97;;
28266;SDS011;15525;45.568;5.448;2023-04-12T14:25:15;13.00;;;6.82;;
28266;SDS011;15525;45.568;5.448;2023-04-12T14:27:40;11.10;;;6.47;;
28266;SDS011;15525;45.568;5.448;2023-04-12T14:30:06;12.30;;;6.50;;
28266;SDS011;15525;45.568;5.448;2023-04-12T14:32:32;11.35;;;6.22;;
28266;SDS011;15525;45.568;5.448;2023-04-12T14:34:57;12.35;;;6.50;;
28266;SDS011;15525;45.568;5.448;2023-04-12T14:37:23;10.82;;;6.88;;
28266;SDS011;15525;45.568;5.448;2023-04-12T14:39:48;14.55;;;7.07;;
28266;SDS011;15525;45.568;5.448;2023-04-12T14:42:14;12.52;;;7.50;;
28266;SDS011;15525;45.568;5.448;2023-04-12T14:44:40;11.55;;;7.22;;
28266;SDS011;15525;45.568;5.448;2023-04-12T14:47:05;13.52;;;7.53;;
28266;SDS011;15525;45.568;5.448;2023-04-12T14:49:30;16.48;;;7.40;;
28266;SDS011;15525;45.568;5.448;2023-04-12T14:51:56;14.75;;;7.10;;
28266;SDS011;15525;45.568;5.448;2023-04-12T14:54:21;11.77;;;7.35;;
28266;SDS011;15525;45.568;5.448;2023-04-12T14:56:47;12.55;;;7.40;;
28266;SDS011;15525;45.568;5.448;2023-04-12T14:59:12;13.90;;;7.50;;
28266;SDS011;15525;45.568;5.448;2023-04-12T15:01:38;12.43;;;7.20;;
28266;SDS011;15525;45.568;5.448;2023-04-12T15:04:05;15.90;;;7.65;;
28266;SDS011;15525;45.568;5.448;2023-04-12T15:06:31;13.65;;;7.38;;
28266;SDS011;15525;45.568;5.448;2023-04-12T15:08:59;12.95;;;7.32;;
28266;SDS011;15525;45.568;5.448;2023-04-12T15:11:26;13.57;;;7.30;;
28266;SDS011;15525;45.568;5.448;2023-04-12T15:13:51;14.90;;;8.60;;
28266;SDS011;15525;45.568;5.448;2023-04-12T15:16:17;15.00;;;7.32;;
28266;SDS011;15525;45.568;5.448;2023-04-12T15:18:43;13.35;;;7.68;;